sensor_id;sensor_type;location;lat;lon;timestamp;pressure;altitude;pressure_sealevel;temperature;humidity
4199;BME280;2113;50.946;14.610;2023-07-02T00:01:25;51830.16;;;-141.55;70.03
4199;BME280;2113;50.946;14.610;2023-07-02T00:03:54;51880.00;;;-141.55;69.55
4199;BME280;2113;50.946;14.610;2023-07-02T00:06:22;51834.13;;;-141.55;70.11
4199;BME280;2113;50.946;14.610;2023-07-02T00:08:55;51842.13;;;-141.55;70.42
4199;BME280;2113;50.946;14.610;2023-07-02T00:11:24;51834.13;;;-141.55;70.08
4199;BME280;2113;50.946;14.610;2023-07-02T00:13:52;51842.13;;;-141.55;70.39
4199;BME280;2113;50.946;14.610;2023-07-02T00:16:22;51790.28;;;-141.55;70.20
4199;BME280;2113;50.946;14.610;2023-07-02T00:18:50;51842.13;;;-141.55;70.17
4199;BME280;2113;50.946;14.610;2023-07-02T00:21:19;51814.19;;;-141.55;70.14
4199;BME280;2113;50.946;14.610;2023-07-02T00:23:48;51818.19;;;-141.55;70.19
4199;BME280;2113;50.946;14.610;2023-07-02T00:26:16;51842.13;;;-141.55;69.74
4199;BME280;2113;50.946;14.610;2023-07-02T00:28:45;51838.13;;;-141.55;69.78
4199;BME280;2113;50.946;14.610;2023-07-02T00:31:14;51834.13;;;-141.55;70.83
4199;BME280;2113;50.946;14.610;2023-07-02T00:33:44;51834.13;;;-141.55;70.71
4199;BME280;2113;50.946;14.610;2023-07-02T00:36:13;51824.16;;;-141.55;70.92
4199;BME280;2113;50.946;14.610;2023-07-02T00:38:42;51814.19;;;-141.55;70.86
4199;BME280;2113;50.946;14.610;2023-07-02T00:41:12;51794.25;;;-141.55;70.62
4199;BME280;2113;50.946;14.610;2023-07-02T00:43:41;51814.19;;;-141.55;71.05
4199;BME280;2113;50.946;14.610;2023-07-02T00:46:14;51790.28;;;-141.55;71.58
4199;BME280;2113;50.946;14.610;2023-07-02T00:48:48;51878.00;;;-141.55;71.09
4199;BME280;2113;50.946;14.610;2023-07-02T00:51:18;51856.06;;;-141.55;72.03
4199;BME280;2113;50.946;14.610;2023-07-02T00:53:49;51834.13;;;-141.55;71.38
4199;BME280;2113;50.946;14.610;2023-07-02T00:56:18;51834.13;;;-141.55;72.00
4199;BME280;2113;50.946;14.610;2023-07-02T00:58:47;51814.19;;;-141.55;71.92
4199;BME280;2113;50.946;14.610;2023-07-02T01:01:18;51808.22;;;-141.55;71.62
4199;BME280;2113;50.946;14.610;2023-07-02T01:03:53;51834.13;;;-141.55;71.74
4199;BME280;2113;50.946;14.610;2023-07-02T01:06:26;51870.03;;;-141.55;71.37
4199;BME280;2113;50.946;14.610;2023-07-02T01:08:58;51862.06;;;-141.55;71.92
4199;BME280;2113;50.946;14.610;2023-07-02T01:11:30;51834.13;;;-141.55;71.69
4199;BME280;2113;50.946;14.610;2023-07-02T01:14:03;51838.13;;;-141.55;71.69
4199;BME280;2113;50.946;14.610;2023-07-02T01:16:34;51820.19;;;-141.55;71.76
4199;BME280;2113;50.946;14.610;2023-07-02T01:19:11;51864.06;;;-141.55;71.26
4199;BME280;2113;50.946;14.610;2023-07-02T01:21:43;51886.00;;;-141.55;71.07
4199;BME280;2113;50.946;14.610;2023-07-02T01:24:15;51826.16;;;-141.55;70.96
4199;BME280;2113;50.946;14.610;2023-07-02T01:26:44;51893.97;;;-141.55;70.86
4199;BME280;2113;50.946;14.610;2023-07-02T01:29:16;51816.19;;;-141.55;70.94
4199;BME280;2113;50.946;14.610;2023-07-02T01:31:46;51862.06;;;-141.55;70.97
4199;BME280;2113;50.946;14.610;2023-07-02T01:34:14;51848.09;;;-141.55;71.31
4199;BME280;2113;50.946;14.610;2023-07-02T01:36:44;51838.13;;;-141.55;71.40
4199;BME280;2113;50.946;14.610;2023-07-02T01:39:13;51856.06;;;-141.55;71.54
4199;BME280;2113;50.946;14.610;2023-07-02T01:41:44;51830.16;;;-141.55;71.78
4199;BME280;2113;50.946;14.610;2023-07-02T01:44:12;51876.03;;;-141.55;71.92
4199;BME280;2113;50.946;14.610;2023-07-02T01:46:41;51834.13;;;-141.55;72.00
4199;BME280;2113;50.946;14.610;2023-07-02T01:49:09;51872.03;;;-141.55;72.12
4199;BME280;2113;50.946;14.610;2023-07-02T01:51:37;51834.13;;;-141.55;72.35
4199;BME280;2113;50.946;14.610;2023-07-02T01:54:07;51886.00;;;-141.55;72.29
4199;BME280;2113;50.946;14.610;2023-07-02T01:56:36;51874.03;;;-141.55;72.51
4199;BME280;2113;50.946;14.610;2023-07-02T01:59:04;51840.13;;;-141.55;72.57
4199;BME280;2113;50.946;14.610;2023-07-02T02:01:32;51846.09;;;-141.55;72.40
4199;BME280;2113;50.946;14.610;2023-07-02T02:04:01;51880.00;;;-141.55;72.07
4199;BME280;2113;50.946;14.610;2023-07-02T02:06:29;51866.03;;;-141.55;72.22
4199;BME280;2113;50.946;14.610;2023-07-02T02:09:00;51874.03;;;-141.55;72.52
4199;BME280;2113;50.946;14.610;2023-07-02T02:11:37;51866.03;;;-141.55;72.46
4199;BME280;2113;50.946;14.610;2023-07-02T02:14:07;51866.03;;;-141.55;72.34
4199;BME280;2113;50.946;14.610;2023-07-02T02:16:36;51862.06;;;-141.55;72.57
4199;BME280;2113;50.946;14.610;2023-07-02T02:19:05;51848.09;;;-141.55;72.05
4199;BME280;2113;50.946;14.610;2023-07-02T02:21:33;51846.09;;;-141.55;72.22
4199;BME280;2113;50.946;14.610;2023-07-02T02:24:02;51820.19;;;-141.55;72.10
4199;BME280;2113;50.946;14.610;2023-07-02T02:26:32;51844.13;;;-141.55;71.92
4199;BME280;2113;50.946;14.610;2023-07-02T02:29:03;51838.13;;;-141.55;72.12
4199;BME280;2113;50.946;14.610;2023-07-02T02:31:33;51842.13;;;-141.55;71.93
4199;BME280;2113;50.946;14.610;2023-07-02T02:34:03;51860.06;;;-141.55;71.92
4199;BME280;2113;50.946;14.610;2023-07-02T02:36:32;51858.06;;;-141.55;72.14
4199;BME280;2113;50.946;14.610;2023-07-02T02:39:00;51862.06;;;-141.55;72.26
4199;BME280;2113;50.946;14.610;2023-07-02T02:41:29;51866.03;;;-141.55;72.27
4199;BME280;2113;50.946;14.610;2023-07-02T02:44:00;51862.06;;;-141.55;72.28
4199;BME280;2113;50.946;14.610;2023-07-02T02:46:30;51854.09;;;-141.55;72.71
4199;BME280;2113;50.946;14.610;2023-07-02T02:48:59;51850.09;;;-141.55;73.03
4199;BME280;2113;50.946;14.610;2023-07-02T02:51:27;51862.06;;;-141.55;73.66
4199;BME280;2113;50.946;14.610;2023-07-02T02:53:56;51870.03;;;-141.55;73.69
4199;BME280;2113;50.946;14.610;2023-07-02T02:56:24;51858.06;;;-141.55;73.98
4199;BME280;2113;50.946;14.610;2023-07-02T02:58:52;51846.09;;;-141.55;73.73
4199;BME280;2113;50.946;14.610;2023-07-02T03:01:22;51860.06;;;-141.55;74.47
4199;BME280;2113;50.946;14.610;2023-07-02T03:03:51;51854.09;;;-141.55;74.97
4199;BME280;2113;50.946;14.610;2023-07-02T03:06:19;51876.03;;;-141.55;75.31
4199;BME280;2113;50.946;14.610;2023-07-02T03:08:48;51870.03;;;-141.55;75.20
4199;BME280;2113;50.946;14.610;2023-07-02T03:11:16;51866.03;;;-141.55;75.64
4199;BME280;2113;50.946;14.610;2023-07-02T03:13:48;51878.00;;;-141.55;75.83
4199;BME280;2113;50.946;14.610;2023-07-02T03:16:17;51860.06;;;-141.55;75.72
4199;BME280;2113;50.946;14.610;2023-07-02T03:18:50;51842.13;;;-141.55;76.19
4199;BME280;2113;50.946;14.610;2023-07-02T03:21:18;51862.06;;;-141.55;76.57
4199;BME280;2113;50.946;14.610;2023-07-02T03:23:46;51887.97;;;-141.55;76.37
4199;BME280;2113;50.946;14.610;2023-07-02T03:26:14;51886.00;;;-141.55;76.81
4199;BME280;2113;50.946;14.610;2023-07-02T03:28:43;51866.03;;;-141.55;76.64
4199;BME280;2113;50.946;14.610;2023-07-02T03:31:11;51874.03;;;-141.55;77.28
4199;BME280;2113;50.946;14.610;2023-07-02T03:33:39;51893.97;;;-141.55;77.10
4199;BME280;2113;50.946;14.610;2023-07-02T03:36:09;51870.03;;;-141.55;77.76
4199;BME280;2113;50.946;14.610;2023-07-02T03:38:37;51872.03;;;-141.55;77.32
4199;BME280;2113;50.946;14.610;2023-07-02T03:41:06;51868.03;;;-141.55;77.15
4199;BME280;2113;50.946;14.610;2023-07-02T03:43:34;51895.97;;;-141.55;77.00
4199;BME280;2113;50.946;14.610;2023-07-02T03:46:02;51884.00;;;-141.55;76.67
4199;BME280;2113;50.946;14.610;2023-07-02T03:48:31;51848.09;;;-141.55;76.76
4199;BME280;2113;50.946;14.610;2023-07-02T03:51:01;51870.03;;;-141.55;76.22
4199;BME280;2113;50.946;14.610;2023-07-02T03:53:32;51876.03;;;-141.55;76.58
4199;BME280;2113;50.946;14.610;2023-07-02T03:56:00;51868.03;;;-141.55;76.62
4199;BME280;2113;50.946;14.610;2023-07-02T03:58:28;51880.00;;;-141.55;76.51
4199;BME280;2113;50.946;14.610;2023-07-02T04:00:56;51889.97;;;-141.55;76.03
4199;BME280;2113;50.946;14.610;2023-07-02T04:03:25;51882.00;;;-141.55;75.92
4199;BME280;2113;50.946;14.610;2023-07-02T04:05:54;51878.00;;;-141.55;75.82
4199;BME280;2113;50.946;14.610;2023-07-02T04:08:22;51876.03;;;-141.55;76.09
4199;BME280;2113;50.946;14.610;2023-07-02T04:10:53;51872.03;;;-141.55;75.85
4199;BME280;2113;50.946;14.610;2023-07-02T04:13:21;51866.03;;;-141.55;76.05
4199;BME280;2113;50.946;14.610;2023-07-02T04:15:49;51899.94;;;-141.55;75.84
4199;BME280;2113;50.946;14.610;2023-07-02T04:18:18;51860.06;;;-141.55;75.86
4199;BME280;2113;50.946;14.610;2023-07-02T04:20:47;51866.03;;;-141.55;74.94
4199;BME280;2113;50.946;14.610;2023-07-02T04:23:16;51840.13;;;-141.55;74.96
4199;BME280;2113;50.946;14.610;2023-07-02T04:25:46;51840.13;;;-141.55;73.51
4199;BME280;2113;50.946;14.610;2023-07-02T04:28:25;51830.16;;;-141.55;73.12
4199;BME280;2113;50.946;14.610;2023-07-02T04:30:53;51878.00;;;-141.55;73.25
4199;BME280;2113;50.946;14.610;2023-07-02T04:33:21;51860.06;;;-141.55;72.87
4199;BME280;2113;50.946;14.610;2023-07-02T04:35:49;51850.09;;;-141.55;73.26
4199;BME280;2113;50.946;14.610;2023-07-02T04:38:18;51826.16;;;-141.55;73.20
4199;BME280;2113;50.946;14.610;2023-07-02T04:40:46;51878.00;;;-141.55;73.90
4199;BME280;2113;50.946;14.610;2023-07-02T04:43:14;51886.00;;;-141.55;73.33
4199;BME280;2113;50.946;14.610;2023-07-02T04:45:46;51858.06;;;-141.55;73.99
4199;BME280;2113;50.946;14.610;2023-07-02T04:48:15;51866.03;;;-141.55;73.87
4199;BME280;2113;50.946;14.610;2023-07-02T04:50:43;51830.16;;;-141.55;73.67
4199;BME280;2113;50.946;14.610;2023-07-02T04:53:12;51848.09;;;-141.55;73.41
4199;BME280;2113;50.946;14.610;2023-07-02T04:55:41;51866.03;;;-141.55;74.04
4199;BME280;2113;50.946;14.610;2023-07-02T04:58:09;51854.09;;;-141.55;73.33
4199;BME280;2113;50.946;14.610;2023-07-02T05:00:38;51862.06;;;-141.55;73.28
4199;BME280;2113;50.946;14.610;2023-07-02T05:03:07;51850.09;;;-141.55;73.91
4199;BME280;2113;50.946;14.610;2023-07-02T05:05:36;51884.00;;;-141.55;74.05
4199;BME280;2113;50.946;14.610;2023-07-02T05:08:04;51844.13;;;-141.55;73.80
4199;BME280;2113;50.946;14.610;2023-07-02T05:10:32;51887.97;;;-141.55;73.40
4199;BME280;2113;50.946;14.610;2023-07-02T05:13:01;51878.00;;;-141.55;73.70
4199;BME280;2113;50.946;14.610;2023-07-02T05:15:29;51874.03;;;-141.55;73.46
4199;BME280;2113;50.946;14.610;2023-07-02T05:17:58;51887.97;;;-141.55;72.53
4199;BME280;2113;50.946;14.610;2023-07-02T05:20:28;51836.13;;;-141.55;71.92
4199;BME280;2113;50.946;14.610;2023-07-02T05:22:56;51874.03;;;-141.55;71.85
4199;BME280;2113;50.946;14.610;2023-07-02T05:25:24;51874.03;;;-141.55;70.89
4199;BME280;2113;50.946;14.610;2023-07-02T05:27:53;51870.03;;;-141.55;71.05
4199;BME280;2113;50.946;14.610;2023-07-02T05:30:21;51870.03;;;-141.55;71.14
4199;BME280;2113;50.946;14.610;2023-07-02T05:32:49;51878.00;;;-141.55;71.64
4199;BME280;2113;50.946;14.610;2023-07-02T05:35:17;51850.09;;;-141.55;71.61
4199;BME280;2113;50.946;14.610;2023-07-02T05:37:47;51858.06;;;-141.55;72.70
4199;BME280;2113;50.946;14.610;2023-07-02T05:40:15;51880.00;;;-141.55;72.00
4199;BME280;2113;50.946;14.610;2023-07-02T05:42:45;51870.03;;;-141.55;70.65
4199;BME280;2113;50.946;14.610;2023-07-02T05:45:14;51899.94;;;-141.55;71.19
4199;BME280;2113;50.946;14.610;2023-07-02T05:47:42;51919.88;;;-141.55;72.13
4199;BME280;2113;50.946;14.610;2023-07-02T05:50:11;51933.84;;;-141.55;72.46
4199;BME280;2113;50.946;14.610;2023-07-02T05:52:39;51939.84;;;-141.55;73.03
4199;BME280;2113;50.946;14.610;2023-07-02T05:55:10;51919.88;;;-141.55;73.91
4199;BME280;2113;50.946;14.610;2023-07-02T05:57:39;51923.88;;;-141.55;74.92
4199;BME280;2113;50.946;14.610;2023-07-02T06:00:08;51933.84;;;-141.55;75.03
4199;BME280;2113;50.946;14.610;2023-07-02T06:02:40;51935.84;;;-141.55;75.17
4199;BME280;2113;50.946;14.610;2023-07-02T06:05:08;51937.84;;;-141.55;74.53
4199;BME280;2113;50.946;14.610;2023-07-02T06:07:37;51911.91;;;-141.55;74.66
4199;BME280;2113;50.946;14.610;2023-07-02T06:10:06;51909.91;;;-141.55;75.43
4199;BME280;2113;50.946;14.610;2023-07-02T06:12:36;51903.94;;;-141.55;74.44
4199;BME280;2113;50.946;14.610;2023-07-02T06:15:05;51895.97;;;-141.55;74.34
4199;BME280;2113;50.946;14.610;2023-07-02T06:17:34;51911.91;;;-141.55;74.79
4199;BME280;2113;50.946;14.610;2023-07-02T06:20:03;51909.91;;;-141.55;74.22
4199;BME280;2113;50.946;14.610;2023-07-02T06:22:32;51957.78;;;-141.55;74.29
4199;BME280;2113;50.946;14.610;2023-07-02T06:25:01;51907.94;;;-141.55;73.52
4199;BME280;2113;50.946;14.610;2023-07-02T06:27:31;51903.94;;;-141.55;73.83
4199;BME280;2113;50.946;14.610;2023-07-02T06:30:01;51901.94;;;-141.55;73.08
4199;BME280;2113;50.946;14.610;2023-07-02T06:32:29;51937.84;;;-141.55;72.48
4199;BME280;2113;50.946;14.610;2023-07-02T06:34:58;51901.94;;;-141.55;72.02
4199;BME280;2113;50.946;14.610;2023-07-02T06:37:26;51905.94;;;-141.55;71.53
4199;BME280;2113;50.946;14.610;2023-07-02T06:39:55;51909.91;;;-141.55;71.28
4199;BME280;2113;50.946;14.610;2023-07-02T06:42:24;51893.97;;;-141.55;70.70
4199;BME280;2113;50.946;14.610;2023-07-02T06:44:53;51893.97;;;-141.55;71.21
4199;BME280;2113;50.946;14.610;2023-07-02T06:47:23;51937.84;;;-141.55;70.94
4199;BME280;2113;50.946;14.610;2023-07-02T06:49:52;51913.91;;;-141.55;70.61
4199;BME280;2113;50.946;14.610;2023-07-02T06:52:20;51903.94;;;-141.55;71.15
4199;BME280;2113;50.946;14.610;2023-07-02T06:54:48;51891.97;;;-141.55;70.62
4199;BME280;2113;50.946;14.610;2023-07-02T06:57:16;51878.00;;;-141.55;68.92
4199;BME280;2113;50.946;14.610;2023-07-02T06:59:45;51878.00;;;-141.55;67.50
4199;BME280;2113;50.946;14.610;2023-07-02T07:02:16;51923.88;;;-141.55;69.34
4199;BME280;2113;50.946;14.610;2023-07-02T07:04:46;51911.91;;;-141.55;69.16
4199;BME280;2113;50.946;14.610;2023-07-02T07:07:14;51884.00;;;-141.55;69.02
4199;BME280;2113;50.946;14.610;2023-07-02T07:09:43;51891.97;;;-141.55;68.66
4199;BME280;2113;50.946;14.610;2023-07-02T07:12:11;51882.00;;;-141.55;68.38
4199;BME280;2113;50.946;14.610;2023-07-02T07:14:40;51882.00;;;-141.55;68.49
4199;BME280;2113;50.946;14.610;2023-07-02T07:17:08;51874.03;;;-141.55;69.63
4199;BME280;2113;50.946;14.610;2023-07-02T07:19:37;51886.00;;;-141.55;68.73
4199;BME280;2113;50.946;14.610;2023-07-02T07:22:06;51870.03;;;-141.55;68.42
4199;BME280;2113;50.946;14.610;2023-07-02T07:24:35;51828.16;;;-141.55;66.64
4199;BME280;2113;50.946;14.610;2023-07-02T07:27:04;51858.06;;;-141.55;65.45
4199;BME280;2113;50.946;14.610;2023-07-02T07:29:32;51828.16;;;-141.55;64.84
4199;BME280;2113;50.946;14.610;2023-07-02T07:32:00;51846.09;;;-141.55;63.41
4199;BME280;2113;50.946;14.610;2023-07-02T07:34:29;51766.34;;;-141.55;58.27
4199;BME280;2113;50.946;14.610;2023-07-02T07:36:58;51788.28;;;-141.55;59.23
4199;BME280;2113;50.946;14.610;2023-07-02T07:39:28;51786.28;;;-141.55;60.58
4199;BME280;2113;50.946;14.610;2023-07-02T07:41:56;51698.53;;;-141.55;54.25
4199;BME280;2113;50.946;14.610;2023-07-02T07:44:26;51644.69;;;-141.55;49.94
4199;BME280;2113;50.946;14.610;2023-07-02T07:46:56;51748.41;;;-141.55;51.69
4199;BME280;2113;50.946;14.610;2023-07-02T07:49:24;51798.25;;;-141.55;59.39
4199;BME280;2113;50.946;14.610;2023-07-02T07:51:53;51856.06;;;-141.55;62.42
4199;BME280;2113;50.946;14.610;2023-07-02T07:54:21;51826.16;;;-141.55;62.82
4199;BME280;2113;50.946;14.610;2023-07-02T07:56:53;51899.94;;;-141.55;65.67
4199;BME280;2113;50.946;14.610;2023-07-02T07:59:21;51844.13;;;-141.55;64.41
4199;BME280;2113;50.946;14.610;2023-07-02T08:01:50;51830.16;;;-141.55;64.26
4199;BME280;2113;50.946;14.610;2023-07-02T08:04:18;51836.13;;;-141.55;62.11
4199;BME280;2113;50.946;14.610;2023-07-02T08:06:46;51788.28;;;-141.55;60.69
4199;BME280;2113;50.946;14.610;2023-07-02T08:09:15;51796.25;;;-141.55;58.94
4199;BME280;2113;50.946;14.610;2023-07-02T08:11:43;51774.31;;;-141.55;59.34
4199;BME280;2113;50.946;14.610;2023-07-02T08:14:13;51798.25;;;-141.55;59.25
4199;BME280;2113;50.946;14.610;2023-07-02T08:16:41;51746.41;;;-141.55;55.93
4199;BME280;2113;50.946;14.610;2023-07-02T08:19:10;51702.53;;;-141.55;52.74
4199;BME280;2113;50.946;14.610;2023-07-02T08:21:39;51688.56;;;-141.55;48.81
4199;BME280;2113;50.946;14.610;2023-07-02T08:24:07;51656.66;;;-141.55;51.83
4199;BME280;2113;50.946;14.610;2023-07-02T08:26:36;51662.66;;;-141.55;50.10
4199;BME280;2113;50.946;14.610;2023-07-02T08:29:05;51706.50;;;-141.55;51.00
4199;BME280;2113;50.946;14.610;2023-07-02T08:31:34;51772.31;;;-141.55;52.12
4199;BME280;2113;50.946;14.610;2023-07-02T08:34:04;51666.63;;;-141.55;50.80
4199;BME280;2113;50.946;14.610;2023-07-02T08:36:32;51730.44;;;-141.55;50.26
4199;BME280;2113;50.946;14.610;2023-07-02T08:39:01;51790.28;;;-141.55;55.06
4199;BME280;2113;50.946;14.610;2023-07-02T08:41:42;51686.56;;;-141.55;49.74
4199;BME280;2113;50.946;14.610;2023-07-02T08:44:11;51654.66;;;-141.55;46.74
4199;BME280;2113;50.946;14.610;2023-07-02T08:46:42;51618.78;;;-141.55;45.75
4199;BME280;2113;50.946;14.610;2023-07-02T08:49:11;51616.78;;;-141.55;42.94
4199;BME280;2113;50.946;14.610;2023-07-02T08:51:40;51640.72;;;-141.55;43.50
4199;BME280;2113;50.946;14.610;2023-07-02T08:54:08;51600.84;;;-141.55;43.53
4199;BME280;2113;50.946;14.610;2023-07-02T08:56:37;51584.88;;;-141.55;45.21
4199;BME280;2113;50.946;14.610;2023-07-02T08:59:06;51604.81;;;-141.55;43.91
4199;BME280;2113;50.946;14.610;2023-07-02T09:01:46;51614.78;;;-141.55;44.84
4199;BME280;2113;50.946;14.610;2023-07-02T09:04:16;51674.63;;;-141.55;45.72
4199;BME280;2113;50.946;14.610;2023-07-02T09:06:45;51656.66;;;-141.55;45.07
4199;BME280;2113;50.946;14.610;2023-07-02T09:09:14;51636.72;;;-141.55;44.60
4199;BME280;2113;50.946;14.610;2023-07-02T09:11:49;51590.84;;;-141.55;45.30
4199;BME280;2113;50.946;14.610;2023-07-02T09:14:26;51646.69;;;-141.55;44.99
4199;BME280;2113;50.946;14.610;2023-07-02T09:17:06;51614.78;;;-141.55;44.61
4199;BME280;2113;50.946;14.610;2023-07-02T09:19:36;51636.72;;;-141.55;45.43
4199;BME280;2113;50.946;14.610;2023-07-02T09:22:05;51578.91;;;-141.55;42.99
4199;BME280;2113;50.946;14.610;2023-07-02T09:24:33;51664.63;;;-141.55;46.06
4199;BME280;2113;50.946;14.610;2023-07-02T09:27:02;51642.72;;;-141.55;44.68
4199;BME280;2113;50.946;14.610;2023-07-02T09:29:32;51634.72;;;-141.55;43.68
4199;BME280;2113;50.946;14.610;2023-07-02T09:32:05;51708.50;;;-141.55;48.53
4199;BME280;2113;50.946;14.610;2023-07-02T09:34:38;51700.53;;;-141.55;47.01
4199;BME280;2113;50.946;14.610;2023-07-02T09:37:09;51700.53;;;-141.55;47.51
4199;BME280;2113;50.946;14.610;2023-07-02T09:39:37;51610.81;;;-141.55;44.11
4199;BME280;2113;50.946;14.610;2023-07-02T09:42:07;51592.84;;;-141.55;42.04
4199;BME280;2113;50.946;14.610;2023-07-02T09:44:37;51556.97;;;-141.55;38.97
4199;BME280;2113;50.946;14.610;2023-07-02T09:47:10;51554.97;;;-141.55;37.93
4199;BME280;2113;50.946;14.610;2023-07-02T09:49:40;51564.94;;;-141.55;39.78
4199;BME280;2113;50.946;14.610;2023-07-02T09:52:11;51588.88;;;-141.55;38.68
4199;BME280;2113;50.946;14.610;2023-07-02T09:54:39;51554.97;;;-141.55;37.04
4199;BME280;2113;50.946;14.610;2023-07-02T09:57:10;51594.84;;;-141.55;37.60
4199;BME280;2113;50.946;14.610;2023-07-02T09:59:40;51624.75;;;-141.55;38.47
4199;BME280;2113;50.946;14.610;2023-07-02T10:02:11;51622.75;;;-141.55;39.50
4199;BME280;2113;50.946;14.610;2023-07-02T10:04:41;51614.78;;;-141.55;39.35
4199;BME280;2113;50.946;14.610;2023-07-02T10:07:11;51616.78;;;-141.55;37.46
4199;BME280;2113;50.946;14.610;2023-07-02T10:09:41;51660.66;;;-141.55;38.91
4199;BME280;2113;50.946;14.610;2023-07-02T10:12:17;51646.69;;;-141.55;40.51
4199;BME280;2113;50.946;14.610;2023-07-02T10:14:47;51686.56;;;-141.55;41.97
4199;BME280;2113;50.946;14.610;2023-07-02T10:17:28;51684.59;;;-141.55;40.61
4199;BME280;2113;50.946;14.610;2023-07-02T10:20:00;51658.66;;;-141.55;41.36
4199;BME280;2113;50.946;14.610;2023-07-02T10:22:42;51700.53;;;-141.55;45.19
4199;BME280;2113;50.946;14.610;2023-07-02T10:25:10;51774.31;;;-141.55;45.99
4199;BME280;2113;50.946;14.610;2023-07-02T10:27:41;51690.56;;;-141.55;44.74
4199;BME280;2113;50.946;14.610;2023-07-02T10:30:12;51658.66;;;-141.55;42.31
4199;BME280;2113;50.946;14.610;2023-07-02T10:32:42;51650.69;;;-141.55;42.11
4199;BME280;2113;50.946;14.610;2023-07-02T10:35:14;51644.69;;;-141.55;39.97
4199;BME280;2113;50.946;14.610;2023-07-02T10:37:43;51624.75;;;-141.55;40.82
4199;BME280;2113;50.946;14.610;2023-07-02T10:40:12;51672.63;;;-141.55;38.54
4199;BME280;2113;50.946;14.610;2023-07-02T10:42:46;51630.75;;;-141.55;39.06
4199;BME280;2113;50.946;14.610;2023-07-02T10:45:14;51636.72;;;-141.55;38.75
4199;BME280;2113;50.946;14.610;2023-07-02T10:47:45;51622.75;;;-141.55;39.93
4199;BME280;2113;50.946;14.610;2023-07-02T10:50:15;51636.72;;;-141.55;38.62
4199;BME280;2113;50.946;14.610;2023-07-02T10:52:44;51646.69;;;-141.55;39.28
4199;BME280;2113;50.946;14.610;2023-07-02T10:55:17;51640.72;;;-141.55;39.54
4199;BME280;2113;50.946;14.610;2023-07-02T10:57:46;51642.72;;;-141.55;38.72
4199;BME280;2113;50.946;14.610;2023-07-02T11:00:15;51644.69;;;-141.55;37.54
4199;BME280;2113;50.946;14.610;2023-07-02T11:02:45;51662.66;;;-141.55;38.87
4199;BME280;2113;50.946;14.610;2023-07-02T11:05:14;51610.81;;;-141.55;37.88
4199;BME280;2113;50.946;14.610;2023-07-02T11:07:42;51630.75;;;-141.55;37.24
4199;BME280;2113;50.946;14.610;2023-07-02T11:10:17;51658.66;;;-141.55;37.92
4199;BME280;2113;50.946;14.610;2023-07-02T11:12:46;51648.69;;;-141.55;36.60
4199;BME280;2113;50.946;14.610;2023-07-02T11:15:16;51658.66;;;-141.55;37.18
4199;BME280;2113;50.946;14.610;2023-07-02T11:17:46;51682.59;;;-141.55;39.23
4199;BME280;2113;50.946;14.610;2023-07-02T11:20:15;51670.63;;;-141.55;40.04
4199;BME280;2113;50.946;14.610;2023-07-02T11:22:44;51682.59;;;-141.55;38.83
4199;BME280;2113;50.946;14.610;2023-07-02T11:25:16;51652.69;;;-141.55;37.21
4199;BME280;2113;50.946;14.610;2023-07-02T11:27:45;51624.75;;;-141.55;36.42
4199;BME280;2113;50.946;14.610;2023-07-02T11:30:13;51678.59;;;-141.55;38.09
4199;BME280;2113;50.946;14.610;2023-07-02T11:32:50;51648.69;;;-141.55;36.62
4199;BME280;2113;50.946;14.610;2023-07-02T11:35:20;51616.78;;;-141.55;38.90
4199;BME280;2113;50.946;14.610;2023-07-02T11:37:48;51634.72;;;-141.55;38.10
4199;BME280;2113;50.946;14.610;2023-07-02T11:40:18;51634.72;;;-141.55;38.34
4199;BME280;2113;50.946;14.610;2023-07-02T11:42:47;51660.66;;;-141.55;39.33
4199;BME280;2113;50.946;14.610;2023-07-02T11:45:15;51686.56;;;-141.55;39.35
4199;BME280;2113;50.946;14.610;2023-07-02T11:47:43;51688.56;;;-141.55;40.68
4199;BME280;2113;50.946;14.610;2023-07-02T11:50:13;51720.47;;;-141.55;40.23
4199;BME280;2113;50.946;14.610;2023-07-02T11:52:53;51694.56;;;-141.55;41.64
4199;BME280;2113;50.946;14.610;2023-07-02T11:55:23;51664.63;;;-141.55;40.94
4199;BME280;2113;50.946;14.610;2023-07-02T11:57:51;51678.59;;;-141.55;39.54
4199;BME280;2113;50.946;14.610;2023-07-02T12:00:20;51690.56;;;-141.55;39.56
4199;BME280;2113;50.946;14.610;2023-07-02T12:02:48;51696.53;;;-141.55;39.44
4199;BME280;2113;50.946;14.610;2023-07-02T12:05:18;51666.63;;;-141.55;38.15
4199;BME280;2113;50.946;14.610;2023-07-02T12:07:47;51654.66;;;-141.55;40.33
4199;BME280;2113;50.946;14.610;2023-07-02T12:10:15;51696.53;;;-141.55;39.06
4199;BME280;2113;50.946;14.610;2023-07-02T12:12:44;51666.63;;;-141.55;38.55
4199;BME280;2113;50.946;14.610;2023-07-02T12:15:12;51682.59;;;-141.55;39.83
4199;BME280;2113;50.946;14.610;2023-07-02T12:17:41;51662.66;;;-141.55;38.03
4199;BME280;2113;50.946;14.610;2023-07-02T12:20:10;51630.75;;;-141.55;36.38
4199;BME280;2113;50.946;14.610;2023-07-02T12:22:40;51640.72;;;-141.55;37.48
4199;BME280;2113;50.946;14.610;2023-07-02T12:25:08;51662.66;;;-141.55;38.63
4199;BME280;2113;50.946;14.610;2023-07-02T12:27:37;51626.75;;;-141.55;37.98
4199;BME280;2113;50.946;14.610;2023-07-02T12:30:06;51650.69;;;-141.55;38.31
4199;BME280;2113;50.946;14.610;2023-07-02T12:32:38;51662.66;;;-141.55;38.25
4199;BME280;2113;50.946;14.610;2023-07-02T12:35:07;51660.66;;;-141.55;37.70
4199;BME280;2113;50.946;14.610;2023-07-02T12:37:44;51658.66;;;-141.55;37.71
4199;BME280;2113;50.946;14.610;2023-07-02T12:40:14;51706.50;;;-141.55;38.39
4199;BME280;2113;50.946;14.610;2023-07-02T12:42:43;51698.53;;;-141.55;38.39
4199;BME280;2113;50.946;14.610;2023-07-02T12:45:12;51668.63;;;-141.55;39.91
4199;BME280;2113;50.946;14.610;2023-07-02T12:47:43;51702.53;;;-141.55;39.66
4199;BME280;2113;50.946;14.610;2023-07-02T12:50:12;51718.47;;;-141.55;40.47
4199;BME280;2113;50.946;14.610;2023-07-02T12:52:40;51726.47;;;-141.55;41.09
4199;BME280;2113;50.946;14.610;2023-07-02T12:55:10;51698.53;;;-141.55;41.62
4199;BME280;2113;50.946;14.610;2023-07-02T12:57:39;51714.50;;;-141.55;41.33
4199;BME280;2113;50.946;14.610;2023-07-02T13:00:08;51730.44;;;-141.55;40.86
4199;BME280;2113;50.946;14.610;2023-07-02T13:02:37;51706.50;;;-141.55;41.42